Time;durP1;ratioP1;P1;durP2;ratioP2;P2;SDS_P1;SDS_P2;PMS_P1;PMS_P2;Temp;Humidity;BMP_temperature;BMP_pressure;BME280_temperature;BME280_humidity;BME280_pressure;Samples;Min_cycle;Max_cycle;Signal;HPM_P1;HPM_P2
2021/06/24 00:02:22;;;;;;;26.85;20.67;;;17.00;99.90;;;;;;5052526;28;20053;-80
2021/06/24 00:04:49;;;;;;;23.30;20.42;;;17.00;99.90;;;;;;5050482;28;20049;-79
2021/06/24 00:07:16;;;;;;;25.27;20.42;;;17.00;99.90;;;;;;5050964;28;20046;-81
2021/06/24 00:09:43;;;;;;;24.45;20.58;;;16.90;99.90;;;;;;5054900;28;20060;-81
2021/06/24 00:12:12;;;;;;;25.67;21.27;;;16.90;99.90;;;;;;5053905;28;20064;-80
2021/06/24 00:14:38;;;;;;;25.38;21.40;;;16.80;99.90;;;;;;5053079;28;20045;-80
2021/06/24 00:17:05;;;;;;;26.27;22.00;;;16.80;99.90;;;;;;5052830;28;20122;-82
2021/06/24 00:19:32;;;;;;;29.13;22.08;;;16.70;99.90;;;;;;5052570;28;20091;-83
2021/06/24 00:21:59;;;;;;;24.77;22.20;;;16.70;99.90;;;;;;5053676;28;20045;-83
2021/06/24 00:24:26;;;;;;;27.70;22.75;;;16.60;99.90;;;;;;5055627;28;20072;-82
2021/06/24 00:26:53;;;;;;;28.85;23.05;;;16.50;99.90;;;;;;5056004;28;20057;-82
2021/06/24 00:29:21;;;;;;;28.70;23.23;;;16.50;99.90;;;;;;5057506;28;20040;-81
2021/06/24 00:31:48;;;;;;;29.88;24.35;;;16.40;99.90;;;;;;5056255;28;20049;-82
2021/06/24 00:34:15;;;;;;;29.88;23.90;;;16.40;99.90;;;;;;5055939;28;20050;-82
2021/06/24 00:36:42;;;;;;;29.52;23.63;;;16.40;99.90;;;;;;5056904;28;20054;-83
2021/06/24 00:39:09;;;;;;;30.05;22.40;;;16.40;99.90;;;;;;5056117;28;20080;-80
2021/06/24 00:41:36;;;;;;;26.52;23.70;;;16.40;99.90;;;;;;5052652;28;20060;-82
2021/06/24 00:44:04;;;;;;;28.60;24.02;;;16.30;99.90;;;;;;5050008;28;20054;-83
2021/06/24 00:46:32;;;;;;;29.80;24.58;;;16.20;99.90;;;;;;5053811;28;20053;-82
2021/06/24 00:49:03;;;;;;;30.83;24.77;;;16.20;99.90;;;;;;5054811;28;20088;-84
2021/06/24 00:51:30;;;;;;;26.55;23.77;;;16.10;99.90;;;;;;5053492;28;20050;-84
2021/06/24 00:53:57;;;;;;;28.33;24.38;;;16.00;99.90;;;;;;5052661;28;20049;-84
2021/06/24 00:56:28;;;;;;;31.02;24.67;;;15.90;99.90;;;;;;5052894;28;20104;-83
2021/06/24 00:58:55;;;;;;;28.60;25.20;;;15.90;99.90;;;;;;5053000;28;20034;-84
2021/06/24 01:01:22;;;;;;;28.70;23.65;;;15.90;99.90;;;;;;5052344;28;20053;-83
2021/06/24 01:03:52;;;;;;;27.52;24.55;;;15.80;99.90;;;;;;5050983;28;20050;-84
2021/06/24 01:06:19;;;;;;;28.45;25.20;;;15.70;99.90;;;;;;5050640;28;20057;-83
2021/06/24 01:08:46;;;;;;;31.35;25.73;;;15.70;99.90;;;;;;5050246;28;20045;-82
2021/06/24 01:11:14;;;;;;;33.45;25.90;;;15.70;99.90;;;;;;5050279;28;20433;-83
2021/06/24 01:13:42;;;;;;;29.10;24.27;;;15.70;99.90;;;;;;5050702;28;20176;-82
2021/06/24 01:16:09;;;;;;;30.77;25.75;;;15.60;99.90;;;;;;5051006;28;20073;-83
2021/06/24 01:18:36;;;;;;;30.92;25.55;;;15.60;99.90;;;;;;5052833;28;20053;-83
2021/06/24 01:21:05;;;;;;;32.17;25.40;;;15.60;99.90;;;;;;5054045;28;20274;-84
2021/06/24 01:23:38;;;;;;;27.42;24.42;;;15.60;99.90;;;;;;5056663;28;20046;-84
2021/06/24 01:26:05;;;;;;;29.20;25.20;;;15.60;99.90;;;;;;5058285;28;20046;-83
2021/06/24 01:29:18;;;;;;;32.25;24.48;;;15.60;99.90;;;;;;5055659;28;20049;-83
2021/06/24 01:32:00;;;;;;;31.52;24.63;;;15.60;99.90;;;;;;5051727;28;20057;-83
2021/06/24 01:34:41;;;;;;;30.35;24.23;;;15.60;99.90;;;;;;5050941;28;20055;-83
2021/06/24 01:37:08;;;;;;;29.10;25.35;;;15.50;99.90;;;;;;5050090;28;20080;-83
2021/06/24 01:42:17;;;;;;;31.17;24.20;;;15.40;99.90;;;;;;5043047;28;20049;-80
2021/06/24 01:44:44;;;;;;;31.52;24.42;;;15.40;99.90;;;;;;5043187;28;20524;-81
2021/06/24 01:47:12;;;;;;;27.92;23.58;;;15.50;99.90;;;;;;5042477;28;20053;-81
2021/06/24 01:49:41;;;;;;;26.38;23.40;;;15.50;99.90;;;;;;5041030;28;20438;-82
2021/06/24 01:52:08;;;;;;;30.02;23.90;;;15.50;99.90;;;;;;5040273;28;20481;-81
2021/06/24 01:54:36;;;;;;;31.83;23.90;;;15.60;99.90;;;;;;5045078;28;20041;-82
2021/06/24 01:57:06;;;;;;;32.45;24.30;;;15.60;99.90;;;;;;5057394;28;20061;-82
2021/06/24 01:59:33;;;;;;;28.38;23.63;;;15.60;99.90;;;;;;5058151;28;20043;-83
2021/06/24 02:02:15;;;;;;;33.97;23.13;;;15.60;99.90;;;;;;5058069;28;20041;-84
2021/06/24 02:04:46;;;;;;;25.15;22.38;;;15.70;99.90;;;;;;5057884;28;20038;-85
2021/06/24 02:07:13;;;;;;;30.75;22.33;;;15.80;99.90;;;;;;5053757;28;20071;-82
2021/06/24 02:09:47;;;;;;;27.15;21.85;;;15.80;99.90;;;;;;5049754;28;20045;-82
2021/06/24 02:12:15;;;;;;;27.42;22.48;;;15.80;99.90;;;;;;5049068;28;20064;-81
2021/06/24 02:14:43;;;;;;;27.27;23.10;;;15.80;99.90;;;;;;5047873;28;20581;-81
2021/06/24 02:17:10;;;;;;;27.40;23.08;;;15.70;99.90;;;;;;5045694;28;20050;-79
2021/06/24 02:19:37;;;;;;;30.58;23.05;;;15.70;99.90;;;;;;5047063;28;20050;-82
2021/06/24 02:22:07;;;;;;;26.20;23.40;;;15.70;99.90;;;;;;5050931;28;20081;-81
2021/06/24 02:24:33;;;;;;;32.17;22.85;;;15.70;99.90;;;;;;5048162;28;20077;-82
2021/06/24 02:27:02;;;;;;;29.25;23.83;;;15.60;99.90;;;;;;5045777;28;20045;-83
2021/06/24 02:29:29;;;;;;;28.00;24.75;;;15.60;99.90;;;;;;5044292;28;20053;-82
2021/06/24 02:31:56;;;;;;;32.03;24.23;;;15.60;99.90;;;;;;5041973;28;20049;-84
2021/06/24 02:34:23;;;;;;;30.50;23.42;;;15.50;99.90;;;;;;5041256;28;20073;-84
2021/06/24 02:36:50;;;;;;;31.50;24.15;;;15.50;99.90;;;;;;5041344;28;20136;-84
2021/06/24 02:39:17;;;;;;;31.02;24.58;;;15.50;99.90;;;;;;5047111;28;20153;-82
2021/06/24 02:41:43;;;;;;;30.27;23.90;;;15.50;99.90;;;;;;5042304;28;20084;-82
2021/06/24 02:44:12;;;;;;;28.05;24.08;;;15.50;99.90;;;;;;5041050;28;20084;-83
2021/06/24 02:46:38;;;;;;;30.58;22.98;;;15.50;99.90;;;;;;5045571;28;20049;-83
2021/06/24 02:49:05;;;;;;;32.55;24.10;;;15.50;99.90;;;;;;5045730;28;20087;-83
2021/06/24 02:51:32;;;;;;;28.58;24.23;;;15.50;99.90;;;;;;5046639;28;20072;-83
2021/06/24 02:53:59;;;;;;;32.10;23.88;;;15.50;99.90;;;;;;5047177;28;20060;-83
2021/06/24 02:56:26;;;;;;;36.10;23.40;;;15.60;99.90;;;;;;5046314;28;20060;-83
2021/06/24 02:58:53;;;;;;;29.17;22.88;;;15.70;99.90;;;;;;5044833;28;20080;-83
2021/06/24 03:01:21;;;;;;;30.50;22.48;;;15.70;99.90;;;;;;5047802;28;20522;-83
2021/06/24 03:03:53;;;;;;;29.40;22.35;;;15.80;99.90;;;;;;5048193;28;20084;-84
2021/06/24 03:06:19;;;;;;;24.85;21.60;;;15.80;99.90;;;;;;5047275;28;20054;-83
2021/06/24 03:08:46;;;;;;;28.60;21.13;;;15.80;99.90;;;;;;5047421;28;20053;-84
2021/06/24 03:11:15;;;;;;;26.02;21.48;;;15.90;99.90;;;;;;5047772;28;20323;-82
2021/06/24 03:13:42;;;;;;;27.73;21.58;;;15.90;99.90;;;;;;5048909;28;20057;-84
2021/06/24 03:16:09;;;;;;;30.17;21.67;;;16.00;99.90;;;;;;5049585;28;20068;-82
2021/06/24 03:18:37;;;;;;;29.27;21.83;;;16.00;99.90;;;;;;5048520;28;20492;-82
2021/06/24 03:21:04;;;;;;;28.33;22.88;;;16.00;99.90;;;;;;5047531;28;20068;-79
2021/06/24 03:23:31;;;;;;;29.27;22.08;;;15.90;99.90;;;;;;5048460;28;20087;-82
2021/06/24 03:26:00;;;;;;;28.35;23.15;;;15.80;99.90;;;;;;5048726;28;20076;-81
2021/06/24 03:28:27;;;;;;;32.42;24.15;;;15.70;99.90;;;;;;5048951;28;20582;-81
2021/06/24 03:30:54;;;;;;;33.10;23.45;;;15.60;99.90;;;;;;5048461;28;20415;-79
2021/06/24 03:33:21;;;;;;;27.73;23.02;;;15.70;99.90;;;;;;5048185;28;20049;-81
2021/06/24 03:35:50;;;;;;;27.55;22.30;;;15.70;99.90;;;;;;5048845;28;20065;-80
2021/06/24 03:38:17;;;;;;;25.83;22.45;;;15.70;99.90;;;;;;5047997;28;20053;-80
2021/06/24 03:40:44;;;;;;;28.50;21.98;;;15.70;99.90;;;;;;5048065;28;20433;-81
2021/06/24 03:43:11;;;;;;;32.60;23.13;;;15.70;99.90;;;;;;5047471;28;20505;-83
2021/06/24 03:45:42;;;;;;;32.35;22.17;;;15.80;99.90;;;;;;5048892;28;20049;-82
2021/06/24 03:48:09;;;;;;;26.70;21.63;;;15.70;99.90;;;;;;5048063;28;20060;-82
2021/06/24 03:50:37;;;;;;;29.70;21.70;;;15.70;99.90;;;;;;5048382;28;20553;-83
2021/06/24 03:53:06;;;;;;;27.88;21.63;;;15.70;99.90;;;;;;5048485;28;20149;-83
2021/06/24 03:55:37;;;;;;;29.00;22.02;;;15.70;99.90;;;;;;5048751;28;20073;-82
2021/06/24 03:58:05;;;;;;;35.85;22.10;;;15.80;99.90;;;;;;5048879;28;20049;-83
2021/06/24 04:00:34;;;;;;;30.65;21.88;;;15.80;99.90;;;;;;5047821;28;20045;-82
2021/06/24 04:03:03;;;;;;;32.70;21.48;;;15.80;99.90;;;;;;5044514;28;20046;-82
2021/06/24 04:05:31;;;;;;;32.97;21.48;;;15.80;99.90;;;;;;5046528;28;20055;-83
2021/06/24 04:07:59;;;;;;;31.20;21.15;;;15.80;99.90;;;;;;5047632;28;20050;-82
2021/06/24 04:46:03;;;;;;;;;;;;;;;;;;;;;
2021/06/24 04:59:02;;;;;;;26.98;19.20;;;16.80;99.90;;;;;;4987590;28;20085;-85
2021/06/24 05:01:32;;;;;;;25.58;20.02;;;16.90;99.90;;;;;;4975145;28;20175;-82
2021/06/24 05:04:10;;;;;;;20.95;18.38;;;16.90;99.90;;;;;;5032062;23;20049;-79
2021/06/24 05:06:41;;;;;;;23.40;18.83;;;17.00;99.90;;;;;;5050491;28;20073;-78
2021/06/24 05:09:08;;;;;;;26.67;19.30;;;17.20;99.90;;;;;;5040466;28;20072;-78
2021/06/24 05:11:44;;;;;;;23.95;18.25;;;17.20;99.90;;;;;;5039634;28;20100;-78
2021/06/24 05:14:14;;;;;;;21.80;17.92;;;17.40;99.90;;;;;;5045795;28;20050;-78
2021/06/24 05:20:21;;;;;;;21.77;18.23;;;17.40;99.90;;;;;;5037564;28;20072;-80
2021/06/24 05:22:58;;;;;;;24.70;18.63;;;17.40;99.90;;;;;;5037457;28;20457;-80
2021/06/24 05:25:25;;;;;;;21.13;18.67;;;17.50;99.90;;;;;;5036613;28;20064;-79
2021/06/24 05:28:02;;;;;;;19.85;17.75;;;17.50;99.90;;;;;;5036096;28;20091;-80
2021/06/24 05:30:40;;;;;;;21.98;18.15;;;17.60;99.90;;;;;;5034699;28;20086;-79
2021/06/24 05:33:12;;;;;;;27.30;18.10;;;17.60;99.90;;;;;;5034517;28;20092;-79
2021/06/24 05:36:02;;;;;;;23.13;18.73;;;17.60;99.90;;;;;;5035196;28;20204;-79
2021/06/24 05:38:53;;;;;;;27.27;18.23;;;17.60;99.90;;;;;;5034450;28;20069;-78
2021/06/24 05:45:26;;;;;;;27.65;18.13;;;17.60;99.90;;;;;;4902317;29;20056;-80
2021/06/24 05:47:58;;;;;;;23.52;18.90;;;17.60;99.90;;;;;;4956414;28;20133;-78
2021/06/24 05:50:40;;;;;;;24.70;19.80;;;17.70;99.90;;;;;;4996147;28;20109;-79
2021/06/24 06:02:50;;;;;;;24.42;21.13;;;17.60;99.90;;;;;;4931729;29;20058;-81
2021/06/24 06:05:22;;;;;;;27.88;22.23;;;17.60;99.90;;;;;;4997698;28;20390;-81
2021/06/24 06:08:09;;;;;;;27.23;21.55;;;17.50;99.90;;;;;;5049507;28;20045;-81
2021/06/24 06:10:38;;;;;;;27.08;21.88;;;17.50;99.90;;;;;;5048587;28;20456;-81
2021/06/24 06:13:11;;;;;;;29.25;21.05;;;17.50;99.90;;;;;;5047495;28;20053;-80
2021/06/24 06:15:43;;;;;;;25.23;21.83;;;17.60;99.90;;;;;;5045213;28;20060;-81
2021/06/24 06:21:05;;;;;;;25.38;21.95;;;17.70;99.90;;;;;;5037044;28;20048;-81
2021/06/24 06:23:36;;;;;;;25.45;22.65;;;17.70;99.90;;;;;;5034310;28;20576;-81
2021/06/24 06:26:03;;;;;;;29.53;22.83;;;17.80;99.90;;;;;;5049044;28;20056;-80
2021/06/24 06:28:30;;;;;;;28.85;23.10;;;17.80;99.90;;;;;;5033617;28;20091;-80
2021/06/24 06:30:59;;;;;;;26.58;22.50;;;17.90;99.90;;;;;;5036730;28;20046;-79
2021/06/24 06:33:26;;;;;;;28.73;23.38;;;17.90;99.90;;;;;;5038012;28;20143;-81
2021/06/24 06:35:53;;;;;;;29.77;23.02;;;17.90;99.90;;;;;;5039090;28;20053;-80
2021/06/24 06:38:21;;;;;;;33.22;24.13;;;17.90;99.90;;;;;;5037715;28;20123;-80
2021/06/24 06:40:50;;;;;;;30.38;24.35;;;18.00;99.90;;;;;;5037965;28;20049;-81
2021/06/24 06:43:19;;;;;;;32.90;24.85;;;18.00;99.90;;;;;;5036383;28;20050;-79
2021/06/24 06:45:46;;;;;;;34.30;24.98;;;18.00;99.90;;;;;;5040778;28;20061;-83
2021/06/24 06:48:13;;;;;;;31.90;25.58;;;17.90;99.90;;;;;;5043939;28;20072;-81
2021/06/24 06:50:41;;;;;;;35.60;27.48;;;17.80;99.90;;;;;;5041220;28;20128;-82
2021/06/24 06:53:10;;;;;;;31.38;24.98;;;17.70;99.90;;;;;;5041131;28;20063;-84
2021/06/24 07:06:31;;;;;;;;;;;;;;;;;;;;;
2021/06/24 07:09:11;;;;;;;29.38;24.23;;;17.90;99.90;;;;;;5022976;28;20065;-82
2021/06/24 07:11:52;;;;;;;28.90;25.20;;;18.10;99.90;;;;;;5023087;28;20046;-82
2021/06/24 07:17:16;;;;;;;32.60;24.60;;;18.30;99.90;;;;;;5026417;23;20350;-78
2021/06/24 07:19:43;;;;;;;27.75;24.75;;;18.40;99.90;;;;;;5041169;28;20054;-78
2021/06/24 07:22:11;;;;;;;27.90;24.38;;;18.40;99.90;;;;;;5051816;28;20041;-76
2021/06/24 07:24:38;;;;;;;33.60;25.02;;;18.40;99.90;;;;;;5052051;28;20036;-78
2021/06/24 07:27:06;;;;;;;35.58;24.27;;;18.50;99.90;;;;;;5052547;28;20049;-79
2021/06/24 07:29:33;;;;;;;26.83;23.98;;;18.60;99.90;;;;;;5053385;28;20080;-78
2021/06/24 07:32:00;;;;;;;29.48;25.13;;;18.60;99.90;;;;;;5052772;28;20041;-78
2021/06/24 07:34:27;;;;;;;34.22;25.70;;;18.50;99.90;;;;;;5051649;28;20132;-77
2021/06/24 07:36:54;;;;;;;27.17;24.00;;;18.60;99.90;;;;;;5051327;28;20075;-77
2021/06/24 07:39:22;;;;;;;27.27;23.70;;;18.60;99.90;;;;;;5052167;28;20045;-77
2021/06/24 07:41:49;;;;;;;30.35;23.95;;;18.70;99.90;;;;;;5053003;28;20076;-78
2021/06/24 07:44:20;;;;;;;26.48;23.50;;;19.00;99.90;;;;;;5056924;28;20053;-78
2021/06/24 07:46:48;;;;;;;26.98;20.92;;;19.30;99.90;;;;;;5052751;28;20072;-78
2021/06/24 07:49:18;;;;;;;25.55;21.60;;;19.90;99.90;;;;;;5052621;28;20106;-80
2021/06/24 07:51:45;;;;;;;27.08;21.33;;;20.20;99.90;;;;;;5052602;28;20049;-78
2021/06/24 07:54:14;;;;;;;32.95;22.13;;;20.40;99.90;;;;;;5055632;28;20087;-78
2021/06/24 07:56:43;;;;;;;26.98;20.67;;;20.50;99.90;;;;;;5057069;28;20091;-78
2021/06/24 07:59:13;;;;;;;28.83;21.77;;;20.60;99.90;;;;;;5059347;28;20140;-78
2021/06/24 08:04:22;;;;;;;25.77;21.00;;;20.90;99.90;;;;;;5066811;28;20056;-76
2021/06/24 08:06:51;;;;;;;24.70;20.55;;;21.00;99.90;;;;;;5066371;28;20056;-77
2021/06/24 08:09:21;;;;;;;23.55;20.15;;;20.90;99.90;;;;;;5066018;28;20118;-79
2021/06/24 08:11:49;;;;;;;27.95;21.55;;;21.10;99.90;;;;;;5060034;28;20121;-79
2021/06/24 08:14:21;;;;;;;24.65;22.05;;;21.10;99.90;;;;;;5064028;28;20072;-80
2021/06/24 08:16:48;;;;;;;28.13;21.00;;;21.00;99.90;;;;;;5061235;28;20057;-80
2021/06/24 08:19:15;;;;;;;23.05;20.67;;;21.10;99.90;;;;;;5062317;28;20068;-80
2021/06/24 08:21:41;;;;;;;26.80;21.38;;;21.20;99.90;;;;;;5062421;28;20100;-80
2021/06/24 08:24:09;;;;;;;24.77;20.95;;;21.10;99.90;;;;;;5063873;28;20088;-81
2021/06/24 08:26:35;;;;;;;30.00;24.20;;;21.20;99.90;;;;;;5063356;28;20045;-79
2021/06/24 08:29:04;;;;;;;25.20;21.27;;;21.10;99.90;;;;;;5061446;28;20045;-80
2021/06/24 08:31:31;;;;;;;28.65;23.05;;;21.10;99.90;;;;;;5062448;28;20485;-80
2021/06/24 08:33:59;;;;;;;28.02;24.17;;;21.10;99.90;;;;;;5062251;28;20397;-79
2021/06/24 08:36:25;;;;;;;27.42;22.17;;;21.10;99.90;;;;;;5062320;28;20060;-80
2021/06/24 08:38:52;;;;;;;27.55;22.40;;;21.50;99.90;;;;;;5063249;28;20108;-81
2021/06/24 08:41:20;;;;;;;24.40;21.80;;;22.00;99.90;;;;;;5062322;28;20049;-81
2021/06/24 08:43:48;;;;;;;24.45;21.98;;;22.30;99.90;;;;;;5062731;28;20136;-81
2021/06/24 08:46:19;;;;;;;27.13;21.48;;;22.40;99.90;;;;;;5063132;28;20055;-80
2021/06/24 08:48:47;;;;;;;24.98;21.90;;;22.40;99.90;;;;;;5061785;28;20052;-80
2021/06/24 08:51:17;;;;;;;27.30;22.50;;;22.40;99.90;;;;;;5066466;28;20077;-81
2021/06/24 08:53:46;;;;;;;28.35;23.85;;;22.50;99.90;;;;;;5066403;28;20063;-80
2021/06/24 08:56:15;;;;;;;23.63;21.23;;;22.20;99.90;;;;;;5066382;28;20531;-81
2021/06/24 08:58:42;;;;;;;26.95;23.02;;;22.20;99.90;;;;;;5065136;28;20059;-81
2021/06/24 09:01:09;;;;;;;27.83;23.38;;;22.00;99.90;;;;;;5062726;28;20310;-81
2021/06/24 09:03:37;;;;;;;27.90;22.48;;;21.80;99.90;;;;;;5063049;28;20049;-79
2021/06/24 09:06:06;;;;;;;27.35;24.40;;;21.60;99.90;;;;;;5060150;28;20102;-80
2021/06/24 09:08:39;;;;;;;33.20;24.33;;;21.50;99.90;;;;;;5058802;28;20044;-79
2021/06/24 09:11:22;;;;;;;;;;;21.50;99.90;;;;;;5058692;28;20041;-79
2021/06/24 09:13:59;;;;;;;;;;;21.50;99.90;;;;;;5056465;28;19928;-79
2021/06/24 09:16:28;;;;;;;26.73;24.08;;;21.50;99.90;;;;;;5055551;28;19924;-79
2021/06/24 09:19:19;;;;;;;25.42;22.73;;;21.20;99.90;;;;;;5057452;28;20060;-79
2021/06/24 09:21:49;;;;;;;26.13;23.38;;;21.30;99.90;;;;;;5060095;28;20056;-79
2021/06/24 09:24:25;;;;;;;24.27;21.85;;;21.40;99.90;;;;;;5059287;28;20044;-80
2021/06/24 09:26:52;;;;;;;25.63;21.90;;;21.40;99.90;;;;;;5059968;28;20140;-80
2021/06/24 09:29:20;;;;;;;26.20;22.15;;;21.30;99.90;;;;;;5061255;28;20083;-81
2021/06/24 09:31:50;;;;;;;27.50;23.08;;;21.10;99.90;;;;;;5061130;28;20132;-80
2021/06/24 09:34:19;;;;;;;25.67;23.05;;;21.10;99.90;;;;;;5059513;28;20553;-80
2021/06/24 09:36:47;;;;;;;30.27;23.27;;;21.00;99.90;;;;;;5056903;28;20044;-79
2021/06/24 09:39:29;;;;;;;26.83;21.88;;;21.00;99.90;;;;;;5059399;28;20045;-79
2021/06/24 09:41:58;;;;;;;26.40;23.58;;;21.00;99.90;;;;;;5064672;28;20061;-79
2021/06/24 09:44:25;;;;;;;26.50;22.27;;;21.00;99.90;;;;;;5062440;28;20175;-79
2021/06/24 09:46:52;;;;;;;25.35;22.58;;;21.00;99.90;;;;;;5058462;28;20128;-80
2021/06/24 09:49:29;;;;;;;25.95;22.05;;;21.20;99.90;;;;;;5059619;28;20053;-80
2021/06/24 09:51:58;;;;;;;27.60;20.83;;;21.50;99.90;;;;;;5061064;28;20105;-79
2021/06/24 09:54:37;;;;;;;26.92;21.75;;;21.60;99.90;;;;;;5058522;28;20088;-81
2021/06/24 09:57:06;;;;;;;21.88;19.70;;;22.10;99.90;;;;;;5060480;28;20460;-81
2021/06/24 09:59:36;;;;;;;23.17;20.70;;;22.50;99.90;;;;;;5060370;28;20433;-80
2021/06/24 10:02:08;;;;;;;23.95;19.80;;;22.60;99.90;;;;;;5061096;28;20080;-81
2021/06/24 10:04:39;;;;;;;23.70;21.23;;;22.90;99.90;;;;;;5061371;28;20064;-81
2021/06/24 10:07:09;;;;;;;25.85;20.73;;;23.20;99.90;;;;;;5061663;28;20076;-81
2021/06/24 10:09:38;;;;;;;23.77;21.33;;;23.30;99.90;;;;;;5063834;28;20049;-79
2021/06/24 10:12:06;;;;;;;27.92;20.90;;;23.30;99.90;;;;;;5062358;28;20517;-82
2021/06/24 10:14:33;;;;;;;24.27;21.65;;;23.10;99.90;;;;;;5065013;28;20072;-81
2021/06/24 10:17:02;;;;;;;26.80;22.75;;;22.80;99.90;;;;;;5062625;28;20087;-82
2021/06/24 10:19:31;;;;;;;28.58;23.17;;;22.70;99.90;;;;;;5065605;28;20049;-80
2021/06/24 10:22:04;;;;;;;27.25;22.90;;;22.60;99.90;;;;;;5066759;28;20068;-80
2021/06/24 10:24:34;;;;;;;26.35;22.50;;;22.50;99.90;;;;;;5063827;28;20106;-80
2021/06/24 10:27:06;;;;;;;29.13;22.90;;;22.50;99.90;;;;;;5065139;28;20080;-81
2021/06/24 10:29:43;;;;;;;;;;;22.60;99.90;;;;;;5067908;28;20079;-81
2021/06/24 10:32:25;;;;;;;27.70;23.88;;;22.50;99.90;;;;;;5066568;28;20284;-81
2021/06/24 10:34:53;;;;;;;29.50;24.90;;;22.30;99.90;;;;;;5064669;28;20060;-81
2021/06/24 10:37:23;;;;;;;28.15;23.20;;;22.20;99.90;;;;;;5063914;28;20052;-79
2021/06/24 10:39:51;;;;;;;24.58;21.98;;;22.20;99.90;;;;;;5061974;28;20409;-81
2021/06/24 10:42:20;;;;;;;24.15;21.25;;;22.40;99.90;;;;;;5065286;28;20389;-82
2021/06/24 10:44:57;;;;;;;29.25;22.85;;;22.60;99.90;;;;;;5063025;28;20049;-82
2021/06/24 10:47:53;;;;;;;29.90;22.88;;;22.90;99.90;;;;;;5061880;28;20055;-79
2021/06/24 10:50:46;;;;;;;26.88;22.30;;;23.30;99.90;;;;;;5059818;28;20045;-83
2021/06/24 10:53:49;;;;;;;27.65;23.42;;;23.60;99.90;;;;;;5063163;28;20045;-80
2021/06/24 10:56:30;;;;;;;25.65;22.10;;;23.70;99.90;;;;;;5000844;28;20473;-80
2021/06/24 10:58:58;;;;;;;23.90;21.35;;;23.70;99.90;;;;;;5000345;28;20051;-80
2021/06/24 11:02:04;;;;;;;24.00;19.25;;;23.80;99.90;;;;;;5035669;28;20076;-81
2021/06/24 11:04:33;;;;;;;22.88;18.95;;;23.80;99.90;;;;;;5001553;28;20089;-82
2021/06/24 11:07:07;;;;;;;23.75;19.10;;;23.60;99.90;;;;;;5052473;28;20110;-80
2021/06/24 11:09:35;;;;;;;23.65;17.92;;;23.40;99.90;;;;;;5062127;28;20536;-80
2021/06/24 11:12:02;;;;;;;25.25;19.15;;;23.50;99.90;;;;;;5061125;28;20091;-80
2021/06/24 11:14:57;;;;;;;20.52;17.13;;;23.50;99.90;;;;;;5062901;28;20070;-81
2021/06/24 11:17:42;;;;;;;23.92;18.33;;;23.50;99.90;;;;;;5062643;28;20079;-81
2021/06/24 11:20:20;;;;;;;23.40;18.05;;;23.40;99.90;;;;;;5061368;28;20083;-83
2021/06/24 11:22:48;;;;;;;22.67;18.63;;;23.20;99.90;;;;;;5060594;28;20056;-80
2021/06/24 11:25:16;;;;;;;24.00;20.85;;;23.10;99.90;;;;;;5062028;28;20085;-81
2021/06/24 11:27:46;;;;;;;25.27;19.17;;;23.00;99.90;;;;;;5060011;28;20104;-81
2021/06/24 11:30:14;;;;;;;25.88;19.65;;;23.00;99.90;;;;;;5054879;28;20049;-79
2021/06/24 11:32:46;;;;;;;22.23;19.13;;;23.10;99.90;;;;;;5053265;28;20056;-79
2021/06/24 11:35:32;;;;;;;19.98;17.52;;;23.20;99.90;;;;;;5054276;28;20045;-79
2021/06/24 11:38:02;;;;;;;22.52;16.02;;;23.30;99.90;;;;;;5064829;28;20107;-80
2021/06/24 11:40:32;;;;;;;22.60;17.98;;;23.60;99.90;;;;;;5060175;28;20063;-81
2021/06/24 11:43:07;;;;;;;24.40;18.73;;;23.60;99.90;;;;;;5058732;28;20433;-81
2021/06/24 11:45:34;;;;;;;22.38;18.90;;;23.60;99.90;;;;;;5055156;28;20049;-80
2021/06/24 11:48:01;;;;;;;23.08;17.25;;;23.70;99.90;;;;;;5053585;28;20131;-82
2021/06/24 12:04:19;;;;;;;20.42;17.25;;;22.90;99.90;;;;;;5047863;28;20045;-79
2021/06/24 12:06:49;;;;;;;23.65;18.90;;;22.90;99.90;;;;;;5051991;28;20144;-78
2021/06/24 12:09:21;;;;;;;22.77;17.50;;;22.70;99.90;;;;;;5051658;28;20049;-79
2021/06/24 12:11:52;;;;;;;23.25;16.27;;;22.70;99.90;;;;;;5051450;28;20060;-79
2021/06/24 12:14:21;;;;;;;23.77;18.48;;;22.80;99.90;;;;;;5051522;28;20473;-79
2021/06/24 12:17:12;;;;;;;21.75;17.73;;;22.90;99.90;;;;;;5052277;28;20053;-79
2021/06/24 12:19:47;;;;;;;18.70;16.63;;;22.70;99.90;;;;;;5051880;28;20084;-79
2021/06/24 12:22:15;;;;;;;19.83;16.10;;;22.80;99.90;;;;;;5051957;28;20124;-79
2021/06/24 12:24:43;;;;;;;19.70;17.20;;;22.70;99.90;;;;;;5051858;28;20052;-79
2021/06/24 12:27:27;;;;;;;21.85;18.25;;;22.50;99.90;;;;;;5055002;28;20450;-77
2021/06/24 12:29:58;;;;;;;23.42;17.08;;;22.20;99.90;;;;;;5053234;28;20052;-79
2021/06/24 12:32:26;;;;;;;21.67;17.17;;;22.30;99.90;;;;;;5055417;28;20056;-81
2021/06/24 12:34:56;;;;;;;21.00;17.08;;;22.20;99.90;;;;;;5054364;28;20087;-79
2021/06/24 12:37:30;;;;;;;21.08;16.50;;;22.10;99.90;;;;;;5054057;28;20076;-79
2021/06/24 12:39:58;;;;;;;18.90;15.45;;;22.10;99.90;;;;;;5058933;28;20053;-79
2021/06/24 12:42:26;;;;;;;18.20;16.27;;;22.10;99.90;;;;;;5055467;28;20466;-79
2021/06/24 12:44:54;;;;;;;19.15;15.63;;;22.00;99.90;;;;;;5054644;28;20132;-79
2021/06/24 12:47:34;;;;;;;22.95;15.82;;;22.30;99.90;;;;;;5054911;28;20486;-79
2021/06/24 12:50:28;;;;;;;20.27;16.30;;;22.50;99.90;;;;;;5055732;28;20073;-79
2021/06/24 12:52:58;;;;;;;19.35;15.65;;;22.70;99.90;;;;;;5054335;28;20113;-78
2021/06/24 12:55:43;;;;;;;18.23;15.32;;;22.80;99.90;;;;;;5054359;28;20143;-79
2021/06/24 12:58:13;;;;;;;17.73;15.88;;;22.90;99.90;;;;;;5054317;28;20060;-78
2021/06/24 13:00:49;;;;;;;15.57;13.57;;;23.00;99.90;;;;;;5054139;28;20425;-79
2021/06/24 13:03:16;;;;;;;18.35;15.20;;;22.80;99.90;;;;;;5054982;28;20479;-79
2021/06/24 13:05:43;;;;;;;16.95;14.82;;;22.90;99.90;;;;;;5054079;28;20140;-77
2021/06/24 13:08:10;;;;;;;17.60;14.52;;;22.90;99.90;;;;;;5054468;28;20049;-79
2021/06/24 13:10:47;;;;;;;18.33;15.18;;;22.80;99.90;;;;;;5053471;28;20504;-79
2021/06/24 13:13:29;;;;;;;21.10;15.63;;;22.60;99.90;;;;;;5053836;28;20127;-80
2021/06/24 13:15:56;;;;;;;17.77;14.68;;;22.60;99.90;;;;;;5056672;28;20088;-80
2021/06/24 13:18:28;;;;;;;18.17;14.65;;;22.50;99.90;;;;;;5166685;22;20125;-78
2021/06/24 13:21:00;;;;;;;18.15;13.00;;;22.50;99.90;;;;;;5060055;28;20088;-77
2021/06/24 13:23:37;;;;;;;15.50;13.90;;;22.50;99.90;;;;;;5060204;28;20041;-78
2021/06/24 13:26:16;;;;;;;15.70;13.38;;;22.40;99.90;;;;;;5060015;28;20190;-78
2021/06/24 13:28:56;;;;;;;17.02;13.13;;;22.30;99.90;;;;;;5058579;28;20045;-79
2021/06/24 13:31:27;;;;;;;14.93;12.35;;;22.10;99.90;;;;;;5059806;28;20425;-79
2021/06/24 13:34:19;;;;;;;17.88;12.45;;;22.00;99.90;;;;;;5058437;28;20056;-79
2021/06/24 13:37:02;;;;;;;14.10;12.43;;;22.20;99.90;;;;;;5058009;28;20057;-77
2021/06/24 13:39:38;;;;;;;15.43;12.57;;;22.40;99.90;;;;;;5059795;28;20052;-78
2021/06/24 13:42:17;;;;;;;14.75;12.90;;;22.50;99.90;;;;;;5059626;28;20064;-79
2021/06/24 13:44:48;;;;;;;17.13;12.63;;;22.30;99.90;;;;;;5059475;28;20460;-79
2021/06/24 13:47:49;;;;;;;17.25;13.02;;;22.40;99.90;;;;;;5060392;28;20057;-79
2021/06/24 13:50:24;;;;;;;18.23;13.00;;;22.50;99.90;;;;;;5059141;28;20496;-79
2021/06/24 13:53:12;;;;;;;15.35;12.30;;;22.70;99.90;;;;;;5057654;28;20052;-80
2021/06/24 13:55:43;;;;;;;14.38;11.77;;;22.90;99.90;;;;;;5057943;28;20397;-78
2021/06/24 13:58:20;;;;;;;16.85;14.98;;;23.10;99.90;;;;;;5055192;28;20056;-79
2021/06/24 14:00:56;;;;;;;23.65;14.63;;;23.10;99.90;;;;;;5058684;28;20541;-80
2021/06/24 14:03:23;;;;;;;19.92;13.70;;;23.00;99.90;;;;;;5057732;28;20057;-78
2021/06/24 14:05:53;;;;;;;19.90;13.45;;;23.10;99.90;;;;;;5055094;28;20049;-78
2021/06/24 14:08:24;;;;;;;15.05;13.35;;;23.20;99.90;;;;;;5054784;28;20103;-77
2021/06/24 14:10:56;;;;;;;18.60;14.88;;;23.30;99.90;;;;;;5055444;28;20129;-78
2021/06/24 14:13:26;;;;;;;21.75;15.68;;;23.30;99.90;;;;;;5055130;28;20045;-78
2021/06/24 14:15:58;;;;;;;19.33;15.38;;;23.00;99.90;;;;;;5055152;28;20059;-77
2021/06/24 14:18:25;;;;;;;;;;;22.90;99.90;;;;;;5054813;28;20455;-77
2021/06/24 14:20:54;;;;;;;18.17;13.98;;;23.00;99.90;;;;;;5055805;28;19927;-79
2021/06/24 14:23:27;;;;;;;16.58;13.50;;;23.20;99.90;;;;;;5054968;28;20068;-78
2021/06/24 14:25:54;;;;;;;17.65;12.68;;;23.30;99.90;;;;;;5055371;28;20468;-78
2021/06/24 14:28:21;;;;;;;14.48;12.68;;;23.50;99.90;;;;;;5054762;28;20057;-78
2021/06/24 14:30:49;;;;;;;16.85;13.20;;;23.50;99.90;;;;;;5054171;28;20476;-78